Time;durP1;ratioP1;P1;durP2;ratioP2;P2;SDS_P1;SDS_P2;PMS_P1;PMS_P2;Temp;Humidity;BMP_temperature;BMP_pressure;BME280_temperature;BME280_humidity;BME280_pressure;Samples;Min_cycle;Max_cycle;Signal;HPM_P1;HPM_P2
2023/03/16 00:00:39;;;;;;;2.38;0.50;;;18.40;34.20;;;;;;5064985;28;20577;-86
2023/03/16 00:03:04;;;;;;;7.10;0.80;;;18.40;34.20;;;;;;5065810;28;20609;-87
2023/03/16 00:05:33;;;;;;;3.08;0.70;;;18.30;34.20;;;;;;5048301;28;20169;-87
2023/03/16 00:08:02;;;;;;;3.40;0.63;;;18.40;34.20;;;;;;5081715;28;20154;-87
2023/03/16 00:10:29;;;;;;;2.35;0.60;;;18.40;34.20;;;;;;5027989;28;20254;-86
2023/03/16 00:12:56;;;;;;;4.78;0.52;;;18.40;34.20;;;;;;5027663;28;20193;-87
2023/03/16 00:15:25;;;;;;;1.77;0.75;;;18.40;34.30;;;;;;5027650;28;20223;-87
2023/03/16 00:17:52;;;;;;;2.22;0.68;;;18.40;34.20;;;;;;5027935;28;20289;-87
2023/03/16 00:20:23;;;;;;;3.38;0.70;;;18.40;34.20;;;;;;5027447;28;20182;-86
2023/03/16 00:22:50;;;;;;;1.13;0.63;;;18.30;34.20;;;;;;5027643;28;20170;-86
2023/03/16 00:25:17;;;;;;;2.30;0.70;;;18.30;34.30;;;;;;5044056;28;20656;-87
2023/03/16 00:27:43;;;;;;;4.40;0.90;;;18.40;34.30;;;;;;5027306;28;20163;-87
2023/03/16 00:30:14;;;;;;;1.77;0.55;;;18.30;34.30;;;;;;5044321;28;20261;-87
2023/03/16 00:32:40;;;;;;;2.03;0.50;;;18.30;34.30;;;;;;5044085;28;20636;-86
2023/03/16 00:35:08;;;;;;;3.13;0.60;;;18.30;34.30;;;;;;5060742;28;20159;-86
2023/03/16 00:37:36;;;;;;;1.08;0.63;;;18.40;34.40;;;;;;5044103;28;20202;-87
2023/03/16 00:40:03;;;;;;;4.03;0.75;;;18.30;34.40;;;;;;5027775;28;20197;-87
2023/03/16 00:42:29;;;;;;;1.58;0.60;;;18.30;34.40;;;;;;5046845;28;20215;-87
2023/03/16 00:44:56;;;;;;;3.17;0.82;;;18.30;34.40;;;;;;5067254;28;20158;-86
2023/03/16 00:47:27;;;;;;;1.38;0.43;;;18.30;34.40;;;;;;5068869;28;20158;-86
2023/03/16 00:49:53;;;;;;;4.93;0.93;;;18.30;34.50;;;;;;5068670;28;20166;-86
2023/03/16 00:52:19;;;;;;;5.75;0.90;;;18.40;35.10;;;;;;5069326;28;20189;-87
2023/03/16 00:54:45;;;;;;;2.38;0.70;;;18.30;34.40;;;;;;5070051;28;20181;-87
2023/03/16 00:57:13;;;;;;;4.38;0.68;;;18.40;34.50;;;;;;5037119;28;20217;-86
2023/03/16 00:59:39;;;;;;;2.97;0.70;;;18.30;34.50;;;;;;5037713;28;20264;-86
2023/03/16 01:02:06;;;;;;;2.92;0.45;;;18.30;34.60;;;;;;5037639;28;20176;-86
2023/03/16 01:04:33;;;;;;;2.10;0.50;;;18.20;34.50;;;;;;5037505;28;20177;-86
2023/03/16 01:06:59;;;;;;;2.40;0.60;;;18.30;34.60;;;;;;5038111;28;20233;-86
2023/03/16 01:09:26;;;;;;;1.20;0.38;;;18.30;34.60;;;;;;5053519;28;20181;-86
2023/03/16 01:11:53;;;;;;;3.00;0.50;;;18.30;34.60;;;;;;5054087;28;20264;-86
2023/03/16 01:14:23;;;;;;;1.02;0.52;;;18.30;34.60;;;;;;5037707;28;20239;-86
2023/03/16 01:16:52;;;;;;;3.97;0.73;;;18.30;34.60;;;;;;5070540;28;20165;-86
2023/03/16 01:19:17;;;;;;;1.70;0.60;;;18.30;34.60;;;;;;5054185;28;20169;-86
2023/03/16 01:21:45;;;;;;;3.60;0.45;;;18.30;34.60;;;;;;5037397;28;20226;-86
2023/03/16 01:24:12;;;;;;;4.35;0.63;;;18.30;34.60;;;;;;5037679;28;20169;-86
2023/03/16 01:26:43;;;;;;;1.42;0.60;;;18.30;34.70;;;;;;5051357;28;20174;-86
2023/03/16 01:29:11;;;;;;;3.50;0.82;;;18.30;34.70;;;;;;5067721;28;20192;-86
2023/03/16 01:31:37;;;;;;;3.50;0.50;;;18.20;34.70;;;;;;5067447;28;20189;-86
2023/03/16 01:34:05;;;;;;;2.97;0.55;;;18.20;34.70;;;;;;5051026;28;20166;-86
2023/03/16 01:36:32;;;;;;;2.42;0.60;;;18.20;34.70;;;;;;5067764;28;20185;-86
2023/03/16 01:39:00;;;;;;;1.58;0.57;;;18.30;34.80;;;;;;5067748;28;20251;-86
2023/03/16 01:41:28;;;;;;;4.88;0.50;;;18.20;34.70;;;;;;5050859;28;20162;-86
2023/03/16 01:43:57;;;;;;;2.25;0.60;;;18.20;34.70;;;;;;5067635;28;20192;-86
2023/03/16 01:46:24;;;;;;;1.55;0.52;;;18.20;34.80;;;;;;5067772;28;20166;-86
2023/03/16 01:48:58;;;;;;;1.95;0.50;;;18.20;34.80;;;;;;5068103;28;20166;-86
2023/03/16 01:51:52;;;;;;;1.52;0.63;;;18.20;34.80;;;;;;5084514;28;20207;-86
2023/03/16 01:54:27;;;;;;;1.85;0.60;;;18.20;34.80;;;;;;5050538;28;20259;-86
2023/03/16 01:57:08;;;;;;;3.05;0.60;;;18.20;34.90;;;;;;5050289;28;20169;-86
2023/03/16 01:59:42;;;;;;;1.10;0.50;;;18.20;34.90;;;;;;5050706;28;20193;-86
2023/03/16 02:02:08;;;;;;;2.95;0.52;;;18.20;34.90;;;;;;5051054;28;20166;-86
2023/03/16 02:04:57;;;;;;;1.90;0.47;;;18.20;34.90;;;;;;5050207;28;20628;-86
2023/03/16 02:07:24;;;;;;;2.60;0.60;;;18.20;34.90;;;;;;5070983;28;20178;-86
2023/03/16 02:09:52;;;;;;;2.40;0.70;;;18.20;34.90;;;;;;5084500;28;20204;-86
2023/03/16 02:12:18;;;;;;;3.72;0.60;;;18.20;35.00;;;;;;5067226;28;20169;-86
2023/03/16 02:14:48;;;;;;;3.40;1.08;;;18.20;35.00;;;;;;5067126;28;20714;-86
2023/03/16 02:17:17;;;;;;;3.13;0.70;;;18.20;35.00;;;;;;5066396;28;20344;-86
2023/03/16 02:20:15;;;;;;;1.75;0.50;;;18.10;34.90;;;;;;5083699;28;20208;-86
2023/03/16 02:22:44;;;;;;;0.82;0.40;;;18.20;35.00;;;;;;5052408;28;20158;-86
2023/03/16 02:25:17;;;;;;;2.88;0.52;;;18.20;35.00;;;;;;5066393;28;20162;-86
2023/03/16 02:27:59;;;;;;;2.35;0.75;;;18.20;35.00;;;;;;5082659;28;20632;-86
2023/03/16 02:30:25;;;;;;;2.03;0.60;;;18.10;35.00;;;;;;5066561;28;20154;-86
2023/03/16 02:32:51;;;;;;;1.73;0.40;;;18.20;35.00;;;;;;5067089;28;20233;-86
2023/03/16 02:35:17;;;;;;;1.23;0.50;;;18.20;35.00;;;;;;5067219;28;20154;-86
2023/03/16 02:37:43;;;;;;;1.25;0.43;;;18.20;35.00;;;;;;5083588;28;20210;-87
2023/03/16 02:40:22;;;;;;;3.95;0.40;;;18.10;35.00;;;;;;5066373;28;20174;-86
2023/03/16 02:42:55;;;;;;;1.13;0.50;;;18.20;35.10;;;;;;5050225;28;20188;-86
2023/03/16 02:45:23;;;;;;;2.60;0.50;;;18.20;35.10;;;;;;5066778;28;20256;-86
2023/03/16 02:47:52;;;;;;;1.48;0.55;;;18.10;35.00;;;;;;5050958;28;20168;-86
2023/03/16 02:50:20;;;;;;;1.27;0.70;;;18.10;35.10;;;;;;5065746;28;20150;-86
2023/03/16 02:52:49;;;;;;;1.70;0.45;;;18.10;35.10;;;;;;5066441;28;20170;-86
2023/03/16 02:55:15;;;;;;;2.58;0.60;;;18.10;35.10;;;;;;5067089;28;20158;-86
2023/03/16 02:57:40;;;;;;;2.63;0.60;;;18.10;35.10;;;;;;5065798;28;20236;-86
2023/03/16 03:00:11;;;;;;;1.52;0.50;;;18.10;35.10;;;;;;5049834;28;20166;-86
2023/03/16 03:02:38;;;;;;;2.50;0.63;;;18.10;35.30;;;;;;5066381;28;20192;-86
2023/03/16 03:05:06;;;;;;;1.65;0.60;;;18.10;35.20;;;;;;5066402;28;20162;-87
2023/03/16 03:07:34;;;;;;;3.05;0.70;;;18.10;35.20;;;;;;5065192;28;20211;-86
2023/03/16 03:10:04;;;;;;;0.57;0.43;;;18.10;35.20;;;;;;5048900;28;20154;-86
2023/03/16 03:12:32;;;;;;;0.85;0.43;;;18.10;35.20;;;;;;5081928;28;20176;-86
2023/03/16 03:14:58;;;;;;;1.35;0.50;;;18.10;35.20;;;;;;5066137;28;20158;-86
2023/03/16 03:17:32;;;;;;;2.75;0.40;;;18.10;35.20;;;;;;5065623;28;20236;-86
2023/03/16 03:19:59;;;;;;;3.40;0.85;;;18.10;35.30;;;;;;5066381;28;20165;-87
2023/03/16 03:22:25;;;;;;;0.93;0.50;;;18.10;35.30;;;;;;5065433;28;20243;-86
2023/03/16 03:24:51;;;;;;;0.98;0.47;;;18.10;35.30;;;;;;5082901;28;20154;-86
2023/03/16 03:27:21;;;;;;;1.38;0.60;;;18.10;35.30;;;;;;5065644;28;20184;-86
2023/03/16 03:29:51;;;;;;;0.73;0.50;;;18.10;35.30;;;;;;5065499;28;20162;-86
2023/03/16 03:32:16;;;;;;;2.95;0.70;;;18.00;35.30;;;;;;5083147;28;20174;-86
2023/03/16 03:34:42;;;;;;;1.83;0.45;;;18.10;35.30;;;;;;5066190;28;20158;-86
2023/03/16 03:37:09;;;;;;;2.70;0.60;;;18.10;35.30;;;;;;5082722;28;20201;-86
2023/03/16 03:39:38;;;;;;;1.58;0.60;;;18.10;35.30;;;;;;5065221;28;20678;-87
2023/03/16 03:42:05;;;;;;;2.45;0.50;;;18.00;35.30;;;;;;5066130;28;20166;-86
2023/03/16 03:44:33;;;;;;;1.70;0.43;;;18.10;35.30;;;;;;5066025;28;20228;-86
2023/03/16 03:46:59;;;;;;;1.95;0.55;;;18.10;35.30;;;;;;5064648;28;20531;-86
2023/03/16 03:49:30;;;;;;;0.95;0.50;;;18.10;35.30;;;;;;5065848;28;20186;-86
2023/03/16 03:51:57;;;;;;;1.50;0.77;;;18.10;35.30;;;;;;5048245;28;20160;-86
2023/03/16 03:54:24;;;;;;;1.98;0.60;;;18.10;35.40;;;;;;5049426;28;20239;-86
2023/03/16 03:56:51;;;;;;;2.03;0.82;;;18.00;35.40;;;;;;5048510;28;20230;-86
2023/03/16 03:59:16;;;;;;;1.85;0.40;;;18.00;35.40;;;;;;5065615;28;20194;-86
2023/03/16 04:01:45;;;;;;;2.78;0.50;;;18.00;35.40;;;;;;5064979;28;20177;-86
2023/03/16 04:04:11;;;;;;;1.95;0.75;;;18.00;35.40;;;;;;5048519;28;20162;-86
2023/03/16 04:06:38;;;;;;;0.77;0.50;;;18.00;35.40;;;;;;5065381;28;20176;-86
2023/03/16 04:09:04;;;;;;;1.75;0.77;;;18.00;35.40;;;;;;5065470;28;20173;-86
2023/03/16 04:11:30;;;;;;;2.33;0.80;;;18.00;35.40;;;;;;5048479;28;20189;-86
2023/03/16 04:13:56;;;;;;;0.90;0.60;;;18.00;36.20;;;;;;5065916;28;20517;-86
2023/03/16 04:16:26;;;;;;;1.10;0.50;;;18.00;35.50;;;;;;5064994;28;20177;-86
2023/03/16 04:18:53;;;;;;;1.33;0.60;;;18.00;35.50;;;;;;5049188;28;20217;-86
2023/03/16 04:21:20;;;;;;;1.42;0.70;;;18.00;35.50;;;;;;5086147;28;20158;-86
2023/03/16 04:23:53;;;;;;;0.85;0.60;;;18.10;35.50;;;;;;5086106;28;20220;-86
2023/03/16 04:26:20;;;;;;;1.27;0.50;;;18.10;35.60;;;;;;5068853;28;20205;-86
2023/03/16 04:28:46;;;;;;;1.50;0.50;;;18.00;35.50;;;;;;5070005;28;20174;-86
2023/03/16 04:31:18;;;;;;;1.65;0.68;;;18.00;35.50;;;;;;5069180;28;20636;-86
2023/03/16 04:33:46;;;;;;;3.22;0.47;;;18.00;35.50;;;;;;5068537;28;20566;-86
2023/03/16 04:36:16;;;;;;;0.90;0.43;;;18.00;35.50;;;;;;5068659;28;20166;-86
2023/03/16 04:38:41;;;;;;;0.77;0.60;;;18.00;35.60;;;;;;5068932;28;20212;-86
2023/03/16 04:41:10;;;;;;;1.90;0.40;;;18.00;35.60;;;;;;5068512;28;20161;-86
2023/03/16 04:43:38;;;;;;;3.97;0.70;;;18.00;35.70;;;;;;5068788;28;20161;-86
2023/03/16 04:46:05;;;;;;;1.33;0.60;;;18.00;35.60;;;;;;5069309;28;20158;-86
2023/03/16 04:48:32;;;;;;;1.30;0.40;;;17.90;36.20;;;;;;5068201;28;20233;-86
2023/03/16 04:51:00;;;;;;;2.05;0.60;;;18.00;35.70;;;;;;5069236;28;20229;-86
2023/03/16 04:53:26;;;;;;;1.48;0.40;;;18.00;35.70;;;;;;5068678;28;20189;-86
2023/03/16 04:55:53;;;;;;;0.75;0.43;;;18.00;35.70;;;;;;5084852;28;20151;-86
2023/03/16 04:58:19;;;;;;;0.50;0.40;;;18.00;35.70;;;;;;5085146;28;20210;-86
2023/03/16 05:00:47;;;;;;;1.63;0.57;;;18.00;35.70;;;;;;5068144;28;20162;-86
2023/03/16 05:03:14;;;;;;;1.60;0.50;;;18.00;35.70;;;;;;5068997;28;20171;-86
2023/03/16 05:05:41;;;;;;;1.15;0.50;;;18.00;35.70;;;;;;5069430;28;20549;-86
2023/03/16 05:08:09;;;;;;;0.95;0.50;;;18.00;35.70;;;;;;5068732;28;20166;-86
2023/03/16 05:10:35;;;;;;;1.10;0.50;;;18.00;35.70;;;;;;5068195;28;20201;-86
2023/03/16 05:13:02;;;;;;;1.10;0.50;;;18.00;35.70;;;;;;5068262;28;20170;-86
2023/03/16 05:15:27;;;;;;;1.08;0.60;;;17.90;35.60;;;;;;5084955;28;20158;-86
2023/03/16 05:17:54;;;;;;;1.55;0.60;;;18.00;35.70;;;;;;5067935;28;20292;-86
2023/03/16 05:20:21;;;;;;;1.20;0.77;;;17.90;35.70;;;;;;5067735;28;20158;-86
2023/03/16 05:22:51;;;;;;;1.13;0.43;;;17.90;35.70;;;;;;5067768;28;20225;-86
2023/03/16 05:25:20;;;;;;;1.63;0.70;;;17.90;35.70;;;;;;5050914;28;20161;-86
2023/03/16 05:27:49;;;;;;;1.30;0.88;;;17.80;35.70;;;;;;5084644;28;20173;-86
2023/03/16 05:30:15;;;;;;;0.82;0.32;;;17.90;35.80;;;;;;5068092;28;20173;-86
2023/03/16 05:32:41;;;;;;;0.82;0.50;;;17.90;35.80;;;;;;5051781;28;20178;-86
2023/03/16 05:35:07;;;;;;;2.33;0.50;;;17.90;35.70;;;;;;5067627;28;20185;-86
2023/03/16 05:37:36;;;;;;;0.77;0.40;;;17.90;35.70;;;;;;5068278;28;20202;-86
2023/03/16 05:40:12;;;;;;;0.65;0.40;;;17.90;35.80;;;;;;5067530;28;20162;-86
2023/03/16 05:42:43;;;;;;;0.85;0.50;;;17.90;35.80;;;;;;5067181;28;20173;-86
2023/03/16 05:45:09;;;;;;;0.98;0.50;;;18.00;35.80;;;;;;5051423;28;20169;-86
2023/03/16 05:47:37;;;;;;;0.75;0.50;;;17.90;35.70;;;;;;5067683;28;20170;-86
2023/03/16 05:50:05;;;;;;;1.15;0.52;;;18.00;35.70;;;;;;5065807;28;20178;-86
2023/03/16 05:52:31;;;;;;;0.75;0.43;;;18.00;35.80;;;;;;5066867;28;20178;-86
2023/03/16 05:55:01;;;;;;;0.95;0.70;;;18.00;35.70;;;;;;5067221;28;20315;-86
2023/03/16 05:57:27;;;;;;;1.83;0.60;;;17.90;35.70;;;;;;5049914;28;20233;-86
2023/03/16 05:59:53;;;;;;;0.55;0.45;;;18.00;35.80;;;;;;5066680;28;20261;-86
2023/03/16 06:02:19;;;;;;;0.85;0.40;;;17.90;35.80;;;;;;5066722;28;20213;-86
2023/03/16 06:04:45;;;;;;;0.80;0.45;;;18.00;35.80;;;;;;5067124;28;20158;-86
2023/03/16 06:07:11;;;;;;;0.90;0.50;;;17.90;35.70;;;;;;5066349;28;20165;-86
2023/03/16 06:09:36;;;;;;;1.83;0.47;;;17.90;35.70;;;;;;5083102;28;20165;-86
2023/03/16 06:12:03;;;;;;;0.85;0.50;;;18.00;35.80;;;;;;5082771;28;20186;-87
2023/03/16 06:14:32;;;;;;;2.88;0.65;;;17.80;35.70;;;;;;5066078;28;20222;-86
2023/03/16 06:16:59;;;;;;;1.70;0.60;;;17.90;35.80;;;;;;5049170;28;20218;-86
2023/03/16 06:19:26;;;;;;;1.40;0.52;;;18.00;35.80;;;;;;5065058;28;20202;-87
2023/03/16 06:21:53;;;;;;;2.35;0.57;;;17.90;35.80;;;;;;5066333;28;20158;-86
2023/03/16 06:24:20;;;;;;;2.53;0.60;;;18.00;35.80;;;;;;5065919;28;20154;-86
2023/03/16 06:26:45;;;;;;;0.73;0.50;;;18.00;35.80;;;;;;5065051;28;20237;-86
2023/03/16 06:29:12;;;;;;;1.38;0.50;;;18.00;35.80;;;;;;5048876;28;20180;-87
2023/03/16 06:31:39;;;;;;;1.77;0.50;;;18.00;35.80;;;;;;5064432;28;20246;-87
2023/03/16 06:34:07;;;;;;;0.75;0.40;;;18.00;35.80;;;;;;5065044;28;20201;-86
2023/03/16 06:36:33;;;;;;;0.73;0.50;;;18.10;35.70;;;;;;5081643;28;20158;-86
2023/03/16 06:39:03;;;;;;;1.40;0.50;;;18.00;35.70;;;;;;5065112;28;20265;-86
2023/03/16 06:41:29;;;;;;;0.80;0.68;;;18.10;35.70;;;;;;5064304;28;20159;-86
2023/03/16 06:43:57;;;;;;;0.77;0.50;;;18.10;35.70;;;;;;5081009;28;20158;-86
2023/03/16 06:46:24;;;;;;;1.15;0.50;;;18.10;35.70;;;;;;5080946;28;20154;-86
2023/03/16 06:48:53;;;;;;;1.10;0.40;;;18.10;35.70;;;;;;5064244;28;20200;-87
2023/03/16 06:51:19;;;;;;;1.73;0.55;;;18.10;35.70;;;;;;5064637;28;20158;-86
2023/03/16 06:53:46;;;;;;;0.55;0.45;;;18.10;35.70;;;;;;5047270;28;20243;-86
2023/03/16 06:56:12;;;;;;;0.73;0.60;;;18.10;35.70;;;;;;5063933;28;20164;-86
2023/03/16 06:58:38;;;;;;;1.60;0.77;;;18.10;35.70;;;;;;5063304;28;20285;-86
2023/03/16 07:01:03;;;;;;;1.15;0.63;;;18.10;35.70;;;;;;5064052;28;20201;-86
2023/03/16 07:03:30;;;;;;;1.67;0.40;;;18.10;35.60;;;;;;5080066;28;20154;-86
2023/03/16 07:05:58;;;;;;;0.70;0.45;;;18.10;35.60;;;;;;5063083;28;20193;-86
2023/03/16 07:08:24;;;;;;;1.48;0.43;;;18.20;35.50;;;;;;5080227;28;20158;-86
2023/03/16 07:10:50;;;;;;;2.13;0.50;;;18.20;35.60;;;;;;5062806;28;20265;-86
2023/03/16 07:13:16;;;;;;;1.58;0.47;;;18.20;35.50;;;;;;5063234;28;20138;-87
2023/03/16 07:15:43;;;;;;;1.13;0.60;;;18.20;35.50;;;;;;5062781;28;20678;-87
2023/03/16 07:18:11;;;;;;;0.55;0.45;;;18.10;35.40;;;;;;5079454;28;20189;-87
2023/03/16 07:20:37;;;;;;;0.57;0.57;;;18.20;35.50;;;;;;5074555;28;20245;-87
2023/03/16 07:23:07;;;;;;;1.17;0.50;;;18.20;35.60;;;;;;5056269;28;20173;-86
2023/03/16 07:25:33;;;;;;;0.65;0.50;;;18.20;35.50;;;;;;5055804;28;20173;-87
2023/03/16 07:28:00;;;;;;;3.13;0.57;;;18.10;35.70;;;;;;5059515;28;20542;-87
2023/03/16 07:30:26;;;;;;;1.13;0.50;;;18.10;35.60;;;;;;5062540;28;20172;-87
2023/03/16 07:32:54;;;;;;;0.38;0.32;;;18.20;35.70;;;;;;5065903;28;20182;-87
2023/03/16 07:35:23;;;;;;;0.60;0.40;;;18.20;35.60;;;;;;5064559;28;20668;-87
2023/03/16 07:37:50;;;;;;;2.05;0.50;;;18.30;35.50;;;;;;5048798;28;20224;-86
2023/03/16 07:40:16;;;;;;;0.55;0.50;;;18.20;35.40;;;;;;5074124;28;20162;-86
2023/03/16 07:42:45;;;;;;;0.50;0.40;;;18.30;35.30;;;;;;5040952;28;20169;-86
2023/03/16 07:45:12;;;;;;;0.95;0.40;;;18.40;35.20;;;;;;5071695;28;20157;-86
2023/03/16 07:47:37;;;;;;;1.35;0.52;;;18.40;35.20;;;;;;5042603;28;20212;-84
2023/03/16 07:50:04;;;;;;;0.55;0.43;;;18.40;35.10;;;;;;5056978;28;20173;-86
2023/03/16 07:52:29;;;;;;;0.85;0.32;;;18.50;35.10;;;;;;5058983;28;20181;-83
2023/03/16 07:54:56;;;;;;;2.40;0.40;;;18.50;35.10;;;;;;5056750;28;20170;-85
2023/03/16 07:57:22;;;;;;;1.75;0.52;;;18.40;35.10;;;;;;5040180;28;20291;-85
2023/03/16 07:59:48;;;;;;;2.38;0.50;;;18.50;35.10;;;;;;5040323;28;20158;-86
2023/03/16 08:02:15;;;;;;;0.50;0.38;;;18.60;35.00;;;;;;5075043;28;20210;-85
2023/03/16 08:04:43;;;;;;;1.67;0.52;;;18.50;35.10;;;;;;5074008;28;20181;-86
2023/03/16 08:07:10;;;;;;;0.73;0.40;;;18.50;35.10;;;;;;5058544;28;20188;-86
2023/03/16 08:09:36;;;;;;;1.55;0.40;;;18.40;35.10;;;;;;5057074;28;20157;-86
2023/03/16 08:12:03;;;;;;;1.40;0.40;;;18.50;35.00;;;;;;5041400;28;20160;-86
2023/03/16 08:14:29;;;;;;;1.60;0.40;;;18.60;34.70;;;;;;5073863;28;20156;-86
2023/03/16 08:16:55;;;;;;;1.05;0.40;;;18.70;34.40;;;;;;5056941;28;20166;-85
2023/03/16 08:19:22;;;;;;;0.88;0.45;;;18.70;34.30;;;;;;5073767;28;20235;-84
2023/03/16 08:21:49;;;;;;;0.50;0.40;;;18.80;34.20;;;;;;5056822;28;20155;-85
2023/03/16 08:24:15;;;;;;;0.50;0.50;;;18.80;34.10;;;;;;5058633;28;20174;-86
2023/03/16 08:26:41;;;;;;;3.65;0.40;;;18.80;33.90;;;;;;5059234;28;20154;-86
2023/03/16 08:29:08;;;;;;;2.80;0.60;;;18.90;34.10;;;;;;5059012;28;20158;-85
2023/03/16 08:31:34;;;;;;;5.90;0.70;;;18.90;34.20;;;;;;5074327;28;20522;-84
2023/03/16 08:34:00;;;;;;;4.53;0.88;;;18.90;35.00;;;;;;5058160;28;20216;-85
2023/03/16 08:36:27;;;;;;;7.05;0.60;;;18.90;34.20;;;;;;5074831;28;20159;-85
2023/03/16 08:38:53;;;;;;;4.95;0.70;;;18.80;34.20;;;;;;5056531;28;20194;-86
2023/03/16 08:41:20;;;;;;;3.95;0.98;;;18.90;34.00;;;;;;5059306;28;20169;-85
2023/03/16 08:43:46;;;;;;;11.32;0.88;;;18.90;34.20;;;;;;5003166;28;20182;-85
2023/03/16 08:46:14;;;;;;;9.80;1.10;;;18.80;34.40;;;;;;4997796;28;20183;-85
2023/03/16 08:48:45;;;;;;;14.75;1.40;;;18.80;34.10;;;;;;5008989;28;20182;-86
2023/03/16 08:51:13;;;;;;;11.60;1.23;;;18.80;34.30;;;;;;5041819;28;20162;-86
2023/03/16 08:53:38;;;;;;;4.15;1.15;;;18.80;34.20;;;;;;5019285;28;20600;-85
2023/03/16 08:56:06;;;;;;;4.88;0.90;;;18.80;34.30;;;;;;4979551;28;20159;-84
2023/03/16 08:58:32;;;;;;;10.77;1.30;;;18.80;34.40;;;;;;4980995;28;20247;-83
2023/03/16 09:01:01;;;;;;;5.93;0.80;;;18.80;34.50;;;;;;5026894;28;20548;-85
2023/03/16 09:03:27;;;;;;;9.07;0.90;;;18.80;34.20;;;;;;4997217;28;20656;-85
2023/03/16 09:06:13;;;;;;;2.10;0.70;;;18.80;34.40;;;;;;5034784;28;20182;-88
2023/03/16 09:08:40;;;;;;;5.32;1.00;;;18.90;34.50;;;;;;5019628;28;20183;-87
2023/03/16 09:11:08;;;;;;;8.15;1.15;;;18.90;34.40;;;;;;5005679;28;20193;-85
2023/03/16 09:13:34;;;;;;;5.22;0.90;;;18.90;34.30;;;;;;5001711;28;20171;-85
2023/03/16 09:16:01;;;;;;;2.67;0.60;;;18.90;34.20;;;;;;5043136;28;20178;-85
2023/03/16 09:18:28;;;;;;;3.40;0.70;;;19.00;34.30;;;;;;5059047;28;20182;-85
2023/03/16 09:20:58;;;;;;;4.53;0.70;;;18.90;34.30;;;;;;5010989;28;20590;-86
2023/03/16 09:23:25;;;;;;;5.55;0.60;;;18.90;34.40;;;;;;5012499;28;20171;-83
2023/03/16 09:25:55;;;;;;;3.38;0.77;;;19.00;34.40;;;;;;5015070;28;20175;-84
2023/03/16 09:28:20;;;;;;;3.38;0.80;;;18.90;34.30;;;;;;4998814;28;20190;-84
2023/03/16 09:30:47;;;;;;;5.50;0.90;;;19.00;34.40;;;;;;5012146;28;20255;-84
2023/03/16 09:33:14;;;;;;;5.55;0.80;;;18.90;34.10;;;;;;5048255;28;20651;-85
2023/03/16 09:35:43;;;;;;;7.38;0.60;;;19.00;34.20;;;;;;5041375;28;20214;-84
2023/03/16 09:38:10;;;;;;;3.15;0.93;;;19.00;34.30;;;;;;5009649;28;20194;-84
2023/03/16 09:40:36;;;;;;;2.70;0.70;;;18.90;34.30;;;;;;5042656;28;20163;-84
2023/03/16 09:43:32;;;;;;;5.15;0.73;;;18.90;34.20;;;;;;5009620;28;20177;-84
2023/03/16 09:46:08;;;;;;;6.90;0.80;;;18.90;34.10;;;;;;5010768;28;20175;-85
2023/03/16 09:48:35;;;;;;;2.10;0.68;;;19.00;33.90;;;;;;5028962;28;20170;-84
2023/03/16 09:51:02;;;;;;;10.45;1.00;;;19.00;34.10;;;;;;5004528;28;20246;-85
2023/03/16 09:53:30;;;;;;;10.20;1.23;;;18.90;33.90;;;;;;5031420;28;20179;-84
2023/03/16 09:56:02;;;;;;;18.00;1.40;;;19.10;33.90;;;;;;5032077;28;20270;-83
2023/03/16 09:58:28;;;;;;;8.93;0.95;;;19.00;34.10;;;;;;5008474;28;20227;-84
2023/03/16 10:01:14;;;;;;;5.05;1.02;;;19.00;34.20;;;;;;5031811;28;20197;-84
2023/03/16 10:03:56;;;;;;;4.82;1.10;;;19.10;34.00;;;;;;5057887;28;20309;-83
2023/03/16 10:06:23;;;;;;;9.60;1.10;;;19.10;33.80;;;;;;5025350;28;20190;-84
2023/03/16 10:09:11;;;;;;;6.72;1.20;;;19.10;33.90;;;;;;5035788;28;20565;-84
2023/03/16 10:11:40;;;;;;;5.57;0.93;;;19.10;34.00;;;;;;5031806;28;20179;-84
2023/03/16 10:14:26;;;;;;;5.25;0.90;;;19.00;33.90;;;;;;5040810;28;20613;-83
2023/03/16 10:17:04;;;;;;;7.07;1.30;;;19.00;33.90;;;;;;5008915;28;20187;-83
2023/03/16 10:19:38;;;;;;;5.55;0.80;;;19.00;34.10;;;;;;5013214;28;20187;-84
2023/03/16 10:22:20;;;;;;;8.20;0.95;;;19.00;34.00;;;;;;5026029;28;20187;-85
2023/03/16 10:24:55;;;;;;;12.38;1.27;;;19.00;34.10;;;;;;5010968;28;20179;-84
2023/03/16 10:27:59;;;;;;;13.65;1.48;;;18.90;34.20;;;;;;4978648;28;20190;-84
2023/03/16 10:30:36;;;;;;;11.40;1.35;;;18.90;34.20;;;;;;4997650;28;20187;-85
2023/03/16 10:33:26;;;;;;;3.40;0.70;;;18.90;34.10;;;;;;4975213;28;20212;-85
2023/03/16 10:36:34;;;;;;;8.95;1.50;;;18.90;34.00;;;;;;4960845;29;20173;-86
2023/03/16 10:39:05;;;;;;;5.57;0.90;;;18.90;34.00;;;;;;4954181;28;20258;-85
2023/03/16 10:41:39;;;;;;;8.77;1.30;;;18.90;34.10;;;;;;4955660;28;20229;-85
2023/03/16 10:44:14;;;;;;;9.57;1.40;;;18.90;34.00;;;;;;4939101;29;20648;-85
2023/03/16 10:46:47;;;;;;;8.38;2.08;;;18.90;34.00;;;;;;4941090;29;20181;-86
2023/03/16 10:49:24;;;;;;;8.82;1.63;;;19.00;34.00;;;;;;4924209;29;20233;-86
2023/03/16 10:51:54;;;;;;;11.55;1.40;;;19.00;33.90;;;;;;4925091;29;20210;-84
2023/03/16 10:54:24;;;;;;;9.70;1.15;;;19.00;33.80;;;;;;4920940;29;20179;-86
2023/03/16 10:56:49;;;;;;;8.50;0.95;;;19.00;33.70;;;;;;4922049;29;20167;-86
2023/03/16 10:59:33;;;;;;;9.70;1.48;;;19.00;33.60;;;;;;4922977;29;20229;-85
2023/03/16 11:02:02;;;;;;;5.72;1.10;;;19.00;33.50;;;;;;4923504;29;20549;-86
2023/03/16 11:04:32;;;;;;;6.15;1.40;;;19.00;33.50;;;;;;4965328;28;20179;-86
2023/03/16 11:07:13;;;;;;;7.07;0.90;;;18.90;33.50;;;;;;4985319;28;20180;-87
2023/03/16 11:09:42;;;;;;;8.32;1.42;;;18.90;33.50;;;;;;4986716;28;20191;-86
2023/03/16 11:12:42;;;;;;;11.30;1.10;;;19.00;33.50;;;;;;4968392;28;20207;-87
2023/03/16 11:15:15;;;;;;;8.70;1.02;;;19.00;33.30;;;;;;4985865;28;20206;-86
2023/03/16 11:17:48;;;;;;;7.53;1.30;;;19.00;32.80;;;;;;4982338;28;20223;-87
2023/03/16 11:20:59;;;;;;;4.45;1.17;;;19.10;32.50;;;;;;4999740;28;20183;-86
2023/03/16 11:23:52;;;;;;;6.97;1.05;;;19.10;32.30;;;;;;4928568;29;20218;-87
2023/03/16 11:26:42;;;;;;;;;;;;;;;;;;;;;
2023/03/16 11:30:12;;;;;;;;;;;;;;;;;;;;;
2023/03/16 11:33:12;;;;;;;3.58;1.20;;;19.10;32.30;;;;;;4816108;29;20656;-87
2023/03/16 11:36:27;;;;;;;;;;;;;;;;;;;;;
2023/03/16 11:39:13;;;;;;;7.03;1.63;;;19.00;32.00;;;;;;4724033;30;20236;-85
2023/03/16 11:42:06;;;;;;;6.47;1.52;;;19.00;32.10;;;;;;4770652;30;20306;-85
2023/03/16 11:44:54;;;;;;;4.80;1.40;;;19.00;31.90;;;;;;4753169;30;20220;-85
2023/03/16 11:47:43;;;;;;;5.53;1.50;;;19.00;31.80;;;;;;4738318;30;20190;-87
2023/03/16 11:50:20;;;;;;;3.35;1.40;;;19.00;31.70;;;;;;4756251;30;20258;-86
2023/03/16 11:53:04;;;;;;;4.13;1.40;;;19.00;31.50;;;;;;4753849;30;20204;-86
2023/03/16 11:56:08;;;;;;;6.03;1.58;;;19.00;31.20;;;;;;4791200;29;20226;-86
2023/03/16 11:59:15;;;;;;;6.18;1.33;;;19.00;31.50;;;;;;4846707;29;20240;-86
2023/03/16 12:02:06;;;;;;;4.97;1.20;;;19.00;31.50;;;;;;4919270;29;20557;-86
2023/03/16 12:04:54;;;;;;;5.68;1.30;;;18.90;31.30;;;;;;4886489;29;20183;-86
2023/03/16 12:07:53;;;;;;;5.63;1.27;;;18.90;31.30;;;;;;4885757;29;20193;-85
2023/03/16 12:10:30;;;;;;;6.57;1.50;;;18.90;31.30;;;;;;4979941;28;20692;-86
2023/03/16 12:13:35;;;;;;;3.70;1.45;;;18.80;31.30;;;;;;4941263;29;20280;-87
2023/03/16 12:16:11;;;;;;;4.00;1.40;;;18.80;31.00;;;;;;4938334;29;20178;-84
2023/03/16 12:19:00;;;;;;;6.75;1.25;;;18.80;30.90;;;;;;4938477;29;20217;-87
2023/03/16 12:21:31;;;;;;;3.83;1.40;;;18.80;31.10;;;;;;4938139;29;20618;-84
2023/03/16 12:24:10;;;;;;;4.88;1.40;;;18.80;31.00;;;;;;4920090;29;20178;-85
2023/03/16 12:27:21;;;;;;;2.88;1.58;;;18.80;30.90;;;;;;4906213;29;20217;-85
2023/03/16 12:30:40;;;;;;;4.18;1.23;;;18.90;30.80;;;;;;4887618;29;20235;-85
2023/03/16 12:33:16;;;;;;;5.22;1.58;;;18.90;31.00;;;;;;4886790;29;20725;-84
2023/03/16 12:39:30;;;;;;;3.58;1.45;;;18.80;30.80;;;;;;4870520;29;20219;-85
2023/03/16 12:42:13;;;;;;;5.30;1.50;;;18.80;31.00;;;;;;4859115;29;20193;-84
2023/03/16 12:48:23;;;;;;;;;;;;;;;;;;;;;
2023/03/16 12:50:57;;;;;;;7.50;1.65;;;18.90;30.80;;;;;;4854597;29;20276;-85
2023/03/16 12:53:53;;;;;;;5.53;1.27;;;18.90;30.90;;;;;;4869196;29;20184;-83
2023/03/16 12:56:47;;;;;;;7.68;1.33;;;19.00;31.00;;;;;;4832748;29;20284;-84
2023/03/16 12:59:17;;;;;;;6.72;1.80;;;18.90;30.90;;;;;;4858912;29;20320;-83
2023/03/16 13:01:55;;;;;;;9.55;1.60;;;18.90;31.10;;;;;;4859020;29;20198;-83
2023/03/16 13:04:35;;;;;;;5.00;1.45;;;19.00;31.20;;;;;;4840757;29;20186;-83
2023/03/16 13:07:03;;;;;;;8.35;1.70;;;19.10;31.20;;;;;;4825858;29;20186;-83
2023/03/16 13:09:31;;;;;;;6.07;1.30;;;19.10;31.10;;;;;;4841165;29;20240;-83
2023/03/16 13:11:57;;;;;;;17.60;2.30;;;19.00;31.30;;;;;;4840805;29;20200;-83
2023/03/16 13:14:40;;;;;;;16.70;2.20;;;18.90;31.50;;;;;;4841524;29;20233;-84
2023/03/16 13:17:29;;;;;;;10.02;1.85;;;18.90;31.60;;;;;;4810759;29;20219;-83
2023/03/16 13:20:01;;;;;;;11.38;1.30;;;18.90;31.60;;;;;;4913413;29;20207;-83